Time;durP1;ratioP1;P1;durP2;ratioP2;P2;SDS_P1;SDS_P2;PMS_P1;PMS_P2;Temp;Humidity;BMP_temperature;BMP_pressure;BME280_temperature;BME280_humidity;BME280_pressure;Samples;Min_cycle;Max_cycle;Signal;HPM_P1;HPM_P2
2022/01/23 00:02:06;;;;;;;5.95;5.35;;;;;;;;;;5113782;28;20457;-82
2022/01/23 00:04:32;;;;;;;5.80;4.95;;;;;;;;;;5113238;28;20027;-79
2022/01/23 00:07:02;;;;;;;6.43;5.40;;;;;;;;;;5113846;28;20035;-82
2022/01/23 00:09:29;;;;;;;6.72;4.85;;;;;;;;;;5113927;28;20024;-81
2022/01/23 00:11:55;;;;;;;6.32;5.55;;;;;;;;;;5113645;28;20024;-81
2022/01/23 00:17:17;;;;;;;5.43;4.72;;;;;;;;;;5113237;28;20556;-78
2022/01/23 00:19:43;;;;;;;6.97;5.40;;;;;;;;;;5113410;28;20471;-80
2022/01/23 00:22:11;;;;;;;8.20;5.53;;;;;;;;;;5113165;28;20031;-79
2022/01/23 00:30:27;;;;;;;6.47;5.28;;;;;;;;;;5113026;28;20100;-81
2022/01/23 00:32:55;;;;;;;6.15;5.50;;;;;;;;;;5113189;28;20020;-82
2022/01/23 00:35:21;;;;;;;6.18;5.13;;;;;;;;;;5112862;28;20027;-82
2022/01/23 00:37:47;;;;;;;5.97;5.30;;;;;;;;;;5112620;28;20090;-78
2022/01/23 00:40:13;;;;;;;7.80;5.45;;;;;;;;;;5094454;28;20441;-82
2022/01/23 00:42:40;;;;;;;5.78;5.15;;;;;;;;;;5094751;28;20458;-88
2022/01/23 00:47:53;;;;;;;7.97;6.05;;;;;;;;;;5112893;28;20035;-83
2022/01/23 00:50:19;;;;;;;7.65;5.18;;;;;;;;;;5112563;28;20026;-79
2022/01/23 00:52:45;;;;;;;6.95;5.70;;;;;;;;;;5112805;28;20098;-81
2022/01/23 00:55:11;;;;;;;6.88;5.65;;;;;;;;;;5112099;28;20032;-79
2022/01/23 00:57:37;;;;;;;6.75;5.68;;;;;;;;;;5112691;28;20027;-78
2022/01/23 01:00:06;;;;;;;7.65;6.20;;;;;;;;;;5112046;28;20030;-80
2022/01/23 01:02:32;;;;;;;6.85;5.30;;;;;;;;;;5109511;28;20019;-78
2022/01/23 01:04:59;;;;;;;6.97;5.60;;;;;;;;;;5112578;28;20058;-77
2022/01/23 01:07:25;;;;;;;7.22;5.38;;;;;;;;;;5112150;28;20399;-77
2022/01/23 01:09:53;;;;;;;8.10;5.72;;;;;;;;;;5112380;28;20027;-77
2022/01/23 01:12:24;;;;;;;6.68;5.35;;;;;;;;;;5093576;28;20034;-77
2022/01/23 01:17:40;;;;;;;6.35;5.18;;;;;;;;;;5112049;28;20501;-85
2022/01/23 01:31:22;;;;;;;8.15;5.93;;;;;;;;;;5112015;28;20085;-78
2022/01/23 01:33:53;;;;;;;6.78;5.47;;;;;;;;;;5112167;28;20038;-77
2022/01/23 01:36:34;;;;;;;6.53;4.88;;;;;;;;;;5111655;28;20091;-80
2022/01/23 01:39:00;;;;;;;6.53;5.50;;;;;;;;;;5111878;28;20027;-83
2022/01/23 01:41:26;;;;;;;6.35;5.28;;;;;;;;;;5111651;28;20024;-86
2022/01/23 01:43:53;;;;;;;6.88;5.40;;;;;;;;;;5111764;28;20050;-82
2022/01/23 01:46:19;;;;;;;6.57;5.72;;;;;;;;;;5111387;28;20036;-81
2022/01/23 01:48:45;;;;;;;6.80;5.90;;;;;;;;;;5111913;28;20024;-82
2022/01/23 01:51:15;;;;;;;7.65;6.20;;;;;;;;;;5111497;28;20069;-81
2022/01/23 01:53:50;;;;;;;6.90;5.13;;;;;;;;;;5111806;28;20383;-81
2022/01/23 01:56:17;;;;;;;7.55;6.63;;;;;;;;;;5111030;28;20510;-81
2022/01/23 02:09:28;;;;;;;6.50;5.07;;;;;;;;;;5091150;28;20090;-81
2022/01/23 02:15:11;;;;;;;7.72;5.57;;;;;;;;;;5091434;28;20039;-82
2022/01/23 02:23:29;;;;;;;7.25;5.25;;;;;;;;;;5091539;28;20093;-82
2022/01/23 02:55:45;;;;;;;6.63;5.30;;;;;;;;;;5112274;28;20115;-79
2022/01/23 02:58:15;;;;;;;7.40;5.80;;;;;;;;;;5114853;28;20392;-80
2022/01/23 03:01:16;;;;;;;6.55;5.65;;;;;;;;;;5114953;28;20027;-79
2022/01/23 03:03:37;;;;;;;6.35;5.03;;;;;;;;;;5111494;28;20032;-80
2022/01/23 03:32:27;;;;;;;5.53;4.75;;;;;;;;;;5114011;28;20050;-81
2022/01/23 03:34:54;;;;;;;6.30;4.90;;;;;;;;;;5096001;28;20047;-80
2022/01/23 03:37:20;;;;;;;7.93;5.72;;;;;;;;;;5113600;28;20088;-81
2022/01/23 03:39:46;;;;;;;6.35;4.93;;;;;;;;;;5114184;28;20099;-81
2022/01/23 03:42:12;;;;;;;7.28;5.15;;;;;;;;;;5113908;28;20032;-81
2022/01/23 03:44:43;;;;;;;5.65;4.78;;;;;;;;;;5113967;28;20505;-81
2022/01/23 03:47:33;;;;;;;6.82;4.85;;;;;;;;;;5095488;28;20046;-81
2022/01/23 03:49:59;;;;;;;6.35;4.53;;;;;;;;;;5114434;28;20030;-81
2022/01/23 03:52:26;;;;;;;5.00;4.50;;;;;;;;;;5113749;28;20032;-81
2022/01/23 03:54:52;;;;;;;7.28;5.18;;;;;;;;;;5113877;28;20117;-82
2022/01/23 03:57:18;;;;;;;7.10;5.30;;;;;;;;;;5113645;28;20023;-82
2022/01/23 03:59:44;;;;;;;6.88;5.55;;;;;;;;;;5113390;28;20027;-82
2022/01/23 04:02:10;;;;;;;6.35;4.85;;;;;;;;;;5094872;28;20426;-81
2022/01/23 04:04:40;;;;;;;4.97;4.05;;;;;;;;;;5113644;28;20064;-81
2022/01/23 04:07:12;;;;;;;6.35;5.00;;;;;;;;;;5112878;28;20031;-80
2022/01/23 04:09:39;;;;;;;6.53;4.82;;;;;;;;;;5113234;28;20123;-80
2022/01/23 04:12:06;;;;;;;6.70;5.20;;;;;;;;;;5113306;28;20502;-80
2022/01/23 04:14:35;;;;;;;6.25;5.05;;;;;;;;;;5113347;28;20049;-80
2022/01/23 04:17:43;;;;;;;7.53;4.65;;;;;;;;;;5113867;28;20103;-80
2022/01/23 04:20:03;;;;;;;6.25;4.82;;;;;;;;;;5113149;28;20024;-81
2022/01/23 04:33:42;;;;;;;5.72;4.53;;;;;;;;;;5113620;28;20399;-79
2022/01/23 05:01:01;;;;;;;5.72;4.30;;;;;;;;;;5112450;28;20053;-80
2022/01/23 05:06:20;;;;;;;7.20;4.65;;;;;;;;;;5112312;28;20383;-79
2022/01/23 05:08:46;;;;;;;5.45;4.55;;;;;;;;;;5111849;28;20031;-79
2022/01/23 05:11:13;;;;;;;5.22;4.60;;;;;;;;;;5111979;28;20533;-80
2022/01/23 05:13:39;;;;;;;5.70;4.47;;;;;;;;;;5111780;28;20114;-79
2022/01/23 05:16:05;;;;;;;5.47;4.28;;;;;;;;;;5112046;28;20108;-78
2022/01/23 05:18:35;;;;;;;7.55;4.15;;;;;;;;;;5112568;28;20034;-79
2022/01/23 05:21:21;;;;;;;5.40;4.72;;;;;;;;;;5093957;28;20026;-79
2022/01/23 05:23:47;;;;;;;6.30;4.40;;;;;;;;;;5111686;28;20043;-79
2022/01/23 05:26:13;;;;;;;5.60;4.72;;;;;;;;;;5111931;28;20134;-81
2022/01/23 05:28:39;;;;;;;6.38;4.78;;;;;;;;;;5112169;28;20028;-80
2022/01/23 05:31:05;;;;;;;6.68;4.65;;;;;;;;;;5111814;28;20020;-80
2022/01/23 05:33:31;;;;;;;6.47;4.65;;;;;;;;;;5112229;28;20023;-82
2022/01/23 05:35:57;;;;;;;6.28;4.72;;;;;;;;;;5112257;28;20016;-81
2022/01/23 05:38:23;;;;;;;4.80;4.10;;;;;;;;;;5111275;28;20035;-81
2022/01/23 05:40:57;;;;;;;4.88;4.15;;;;;;;;;;5093641;28;20019;-80
2022/01/23 05:43:23;;;;;;;5.47;4.10;;;;;;;;;;5111614;28;20069;-80
2022/01/23 05:45:49;;;;;;;7.85;4.53;;;;;;;;;;5111825;28;20402;-80
2022/01/23 05:48:15;;;;;;;5.70;3.97;;;;;;;;;;5111449;28;20031;-80
2022/01/23 05:50:42;;;;;;;5.25;4.07;;;;;;;;;;5111897;28;20027;-80
2022/01/23 05:53:08;;;;;;;5.63;4.03;;;;;;;;;;5111349;28;20043;-81
2022/01/23 05:55:34;;;;;;;5.15;3.72;;;;;;;;;;5111701;28;20028;-80
2022/01/23 05:58:00;;;;;;;5.53;3.85;;;;;;;;;;5111999;28;20043;-80
2022/01/23 06:00:26;;;;;;;4.30;3.13;;;;;;;;;;5110966;28;20540;-81
2022/01/23 06:02:52;;;;;;;5.00;4.05;;;;;;;;;;5092961;28;20162;-81
2022/01/23 06:05:18;;;;;;;5.45;3.60;;;;;;;;;;5111427;28;20024;-80
2022/01/23 06:07:45;;;;;;;5.40;4.07;;;;;;;;;;5111606;28;20036;-81
2022/01/23 06:10:20;;;;;;;7.53;3.78;;;;;;;;;;5111529;28;20023;-79
2022/01/23 06:12:47;;;;;;;5.43;4.57;;;;;;;;;;5111815;28;20467;-80
2022/01/23 06:15:13;;;;;;;5.20;4.00;;;;;;;;;;5111434;28;20020;-79
2022/01/23 06:17:39;;;;;;;5.18;4.03;;;;;;;;;;5093397;28;20027;-78
2022/01/23 06:20:07;;;;;;;5.43;4.05;;;;;;;;;;5111476;28;20048;-79
2022/01/23 06:22:33;;;;;;;5.68;4.40;;;;;;;;;;5111683;28;20080;-79
2022/01/23 06:24:59;;;;;;;4.53;3.47;;;;;;;;;;5115371;28;20073;-78
2022/01/23 06:27:28;;;;;;;5.63;3.65;;;;;;;;;;5115339;28;20411;-78
2022/01/23 06:29:54;;;;;;;6.32;4.10;;;;;;;;;;5115168;28;20102;-80
2022/01/23 06:32:20;;;;;;;5.00;3.83;;;;;;;;;;5115016;28;20395;-80
2022/01/23 06:34:46;;;;;;;5.07;4.03;;;;;;;;;;5097053;28;20024;-78
2022/01/23 06:37:13;;;;;;;4.95;3.42;;;;;;;;;;5115161;28;20024;-78
2022/01/23 06:39:39;;;;;;;4.57;3.60;;;;;;;;;;5115439;28;20108;-78
2022/01/23 06:42:05;;;;;;;4.10;3.47;;;;;;;;;;5115121;28;20051;-78
2022/01/23 06:44:31;;;;;;;5.00;3.75;;;;;;;;;;5115282;28;20035;-79
2022/01/23 06:46:57;;;;;;;5.85;4.05;;;;;;;;;;5115301;28;20480;-79
2022/01/23 06:49:24;;;;;;;5.40;4.03;;;;;;;;;;5114954;28;20019;-78
2022/01/23 06:51:51;;;;;;;5.15;4.22;;;;;;;;;;5115115;28;20031;-78
2022/01/23 06:54:17;;;;;;;5.22;3.50;;;;;;;;;;5114796;28;20031;-79
2022/01/23 06:56:43;;;;;;;6.15;4.28;;;;;;;;;;5115033;28;20012;-80
2022/01/23 06:59:09;;;;;;;4.55;3.53;;;;;;;;;;5115006;28;20034;-78
2022/01/23 07:01:35;;;;;;;4.65;3.53;;;;;;;;;;5114433;28;20023;-78
2022/01/23 07:04:01;;;;;;;5.15;3.88;;;;;;;;;;5115165;28;20364;-77
2022/01/23 07:06:27;;;;;;;5.70;3.90;;;;;;;;;;5115123;28;20495;-77
2022/01/23 07:08:53;;;;;;;4.78;3.28;;;;;;;;;;5114844;28;20035;-78
2022/01/23 07:11:19;;;;;;;4.28;3.33;;;;;;;;;;5114466;28;20024;-78
2022/01/23 07:13:46;;;;;;;4.50;3.38;;;;;;;;;;5096353;28;20038;-77
2022/01/23 07:16:12;;;;;;;4.10;3.45;;;;;;;;;;5114471;28;20024;-77
2022/01/23 07:18:38;;;;;;;5.88;3.03;;;;;;;;;;5114622;28;20039;-79
2022/01/23 07:21:04;;;;;;;5.70;3.67;;;;;;;;;;5114413;28;20015;-82
2022/01/23 07:23:29;;;;;;;4.57;3.40;;;;;;;;;;5114889;28;20027;-78
2022/01/23 07:25:55;;;;;;;3.80;3.05;;;;;;;;;;5114406;28;20463;-78
2022/01/23 07:28:25;;;;;;;4.72;2.92;;;;;;;;;;5114049;28;20043;-78
2022/01/23 07:30:54;;;;;;;4.72;3.30;;;;;;;;;;5114012;28;20390;-78
2022/01/23 07:33:20;;;;;;;4.97;3.33;;;;;;;;;;5096616;28;20019;-78
2022/01/23 07:35:47;;;;;;;5.05;3.90;;;;;;;;;;5095114;28;20027;-78
2022/01/23 07:38:16;;;;;;;4.85;3.28;;;;;;;;;;5113918;28;20023;-78
2022/01/23 07:40:43;;;;;;;3.80;2.88;;;;;;;;;;5114162;28;20024;-80
2022/01/23 07:43:09;;;;;;;3.13;2.75;;;;;;;;;;5113987;28;20068;-81
2022/01/23 07:45:35;;;;;;;4.00;3.25;;;;;;;;;;5114034;28;20032;-81
2022/01/23 07:48:01;;;;;;;5.15;2.85;;;;;;;;;;5096184;28;20058;-82
2022/01/23 07:50:27;;;;;;;4.80;3.47;;;;;;;;;;5114037;28;20658;-82
2022/01/23 07:52:53;;;;;;;4.10;3.13;;;;;;;;;;5113963;28;20110;-81
2022/01/23 07:55:19;;;;;;;5.07;2.88;;;;;;;;;;5113524;28;20094;-82
2022/01/23 07:57:45;;;;;;;4.78;3.30;;;;;;;;;;5113952;28;20062;-83
2022/01/23 08:00:12;;;;;;;4.00;3.08;;;;;;;;;;5113491;28;20026;-80
2022/01/23 08:02:38;;;;;;;3.08;2.55;;;;;;;;;;5113568;28;20028;-79
2022/01/23 08:05:05;;;;;;;4.03;2.72;;;;;;;;;;5113581;28;20081;-79
2022/01/23 08:07:31;;;;;;;2.80;2.30;;;;;;;;;;5113827;28;20399;-79
2022/01/23 08:10:08;;;;;;;3.72;2.42;;;;;;;;;;5113530;28;20022;-78
2022/01/23 08:12:34;;;;;;;3.50;2.50;;;;;;;;;;5095293;28;20027;-79
2022/01/23 08:15:00;;;;;;;3.85;2.20;;;;;;;;;;5113852;28;20471;-79
2022/01/23 08:17:26;;;;;;;2.83;2.00;;;;;;;;;;5113299;28;20023;-82
2022/01/23 08:19:54;;;;;;;3.55;2.55;;;;;;;;;;5095145;28;20028;-81
2022/01/23 08:22:23;;;;;;;3.38;2.38;;;;;;;;;;5113067;28;20068;-81
2022/01/23 08:24:50;;;;;;;3.13;2.42;;;;;;;;;;5113232;28;20038;-78
2022/01/23 08:27:17;;;;;;;4.75;2.20;;;;;;;;;;5112984;28;20035;-79
2022/01/23 08:29:43;;;;;;;4.10;2.65;;;;;;;;;;5113055;28;20118;-78
2022/01/23 08:32:09;;;;;;;3.33;2.42;;;;;;;;;;5112865;28;20027;-78
2022/01/23 08:34:35;;;;;;;5.28;2.72;;;;;;;;;;5113229;28;20110;-79
2022/01/23 08:37:02;;;;;;;5.13;2.50;;;;;;;;;;5113377;28;20020;-79
2022/01/23 08:39:30;;;;;;;4.88;2.92;;;;;;;;;;5113334;28;20059;-81
2022/01/23 08:41:56;;;;;;;3.03;2.50;;;;;;;;;;5113086;28;20027;-79
2022/01/23 08:44:27;;;;;;;3.50;2.60;;;;;;;;;;5112482;28;20032;-79
2022/01/23 08:46:53;;;;;;;3.92;2.55;;;;;;;;;;5112814;28;20031;-81
2022/01/23 08:49:21;;;;;;;3.45;2.35;;;;;;;;;;5112507;28;20027;-82
2022/01/23 08:51:48;;;;;;;3.65;2.22;;;;;;;;;;5112780;28;20098;-82
2022/01/23 08:54:14;;;;;;;2.95;2.22;;;;;;;;;;5112483;28;20035;-81
2022/01/23 08:56:40;;;;;;;3.50;2.50;;;;;;;;;;5112756;28;20024;-78
2022/01/23 08:59:06;;;;;;;2.67;2.20;;;;;;;;;;5112273;28;20015;-77
2022/01/23 09:01:34;;;;;;;2.83;2.20;;;;;;;;;;5112708;28;20030;-79
2022/01/23 09:04:00;;;;;;;3.65;2.58;;;;;;;;;;5112871;28;20419;-78
2022/01/23 09:06:26;;;;;;;3.92;2.70;;;;;;;;;;5112095;28;20039;-78
2022/01/23 09:08:53;;;;;;;4.68;2.70;;;;;;;;;;5112074;28;20580;-79
2022/01/23 09:11:28;;;;;;;3.20;2.25;;;;;;;;;;5111815;28;20038;-78
2022/01/23 09:14:17;;;;;;;3.03;2.42;;;;;;;;;;5112489;28;20429;-78
2022/01/23 09:16:42;;;;;;;3.35;2.25;;;;;;;;;;5111647;28;20559;-80
2022/01/23 09:19:08;;;;;;;4.00;2.60;;;;;;;;;;5112025;28;20043;-78
2022/01/23 09:21:35;;;;;;;3.80;2.60;;;;;;;;;;5112309;28;20479;-78
2022/01/23 09:24:01;;;;;;;4.03;2.40;;;;;;;;;;5112575;28;20020;-80
2022/01/23 09:26:27;;;;;;;4.82;2.17;;;;;;;;;;5093812;28;20565;-79
2022/01/23 09:28:56;;;;;;;2.97;2.30;;;;;;;;;;5111973;28;20058;-79
2022/01/23 09:32:04;;;;;;;4.07;3.05;;;;;;;;;;5092991;28;20023;-78
2022/01/23 09:34:11;;;;;;;4.10;2.45;;;;;;;;;;5103533;28;20032;-80
2022/01/23 09:36:37;;;;;;;4.03;2.28;;;;;;;;;;5112074;28;20034;-79
2022/01/23 09:39:04;;;;;;;3.90;2.83;;;;;;;;;;5111338;28;20024;-77
2022/01/23 09:41:31;;;;;;;4.25;2.78;;;;;;;;;;5112254;28;20024;-83
2022/01/23 09:44:00;;;;;;;3.83;3.05;;;;;;;;;;5111915;28;20038;-80
2022/01/23 09:46:26;;;;;;;4.72;3.33;;;;;;;;;;5093059;28;20036;-80
2022/01/23 09:48:53;;;;;;;4.68;2.65;;;;;;;;;;5093618;28;20528;-79
2022/01/23 09:51:24;;;;;;;4.43;3.13;;;;;;;;;;5093248;28;20111;-78
2022/01/23 09:53:53;;;;;;;5.50;3.25;;;;;;;;;;5111923;28;20383;-79
2022/01/23 09:56:26;;;;;;;6.82;3.65;;;;;;;;;;5111648;28;20085;-79
2022/01/23 09:58:52;;;;;;;5.03;3.85;;;;;;;;;;5110878;28;20062;-80
2022/01/23 10:01:20;;;;;;;5.55;3.42;;;;;;;;;;5111391;28;20030;-79
2022/01/23 10:03:46;;;;;;;8.18;4.30;;;;;;;;;;5092994;28;20483;-78
2022/01/23 10:06:12;;;;;;;5.28;4.07;;;;;;;;;;5111177;28;20031;-77
2022/01/23 10:08:39;;;;;;;6.30;3.80;;;;;;;;;;5111601;28;20080;-80
2022/01/23 10:11:09;;;;;;;4.93;3.78;;;;;;;;;;5111230;28;20027;-80
2022/01/23 10:13:36;;;;;;;5.75;3.80;;;;;;;;;;5111703;28;20016;-80
2022/01/23 10:16:03;;;;;;;8.43;4.13;;;;;;;;;;5111159;28;20031;-78
2022/01/23 10:18:29;;;;;;;31.40;22.95;;;;;;;;;;5111902;28;20019;-80
2022/01/23 10:20:55;;;;;;;23.60;18.48;;;;;;;;;;5111403;28;20028;-80
2022/01/23 10:23:21;;;;;;;21.17;15.43;;;;;;;;;;5111239;28;20033;-78
2022/01/23 10:25:49;;;;;;;16.10;12.52;;;;;;;;;;5111500;28;20024;-78
2022/01/23 10:28:18;;;;;;;16.27;10.77;;;;;;;;;;5092817;28;20113;-79
2022/01/23 10:30:53;;;;;;;11.10;8.93;;;;;;;;;;5110317;28;20019;-79
2022/01/23 10:33:27;;;;;;;17.08;9.10;;;;;;;;;;5091606;28;20032;-78
2022/01/23 10:35:52;;;;;;;10.68;7.40;;;;;;;;;;5111198;28;20028;-78
2022/01/23 10:38:19;;;;;;;8.05;6.93;;;;;;;;;;5111009;28;20027;-79
2022/01/23 10:41:02;;;;;;;12.98;6.38;;;;;;;;;;5111210;28;20027;-82
2022/01/23 10:48:59;;;;;;;8.15;4.47;;;;;;;;;;5111753;28;20098;-80
2022/01/23 10:51:34;;;;;;;5.72;4.80;;;;;;;;;;5111009;28;20414;-78
2022/01/23 10:54:02;;;;;;;9.35;4.13;;;;;;;;;;5111568;28;20042;-80
2022/01/23 10:56:30;;;;;;;8.73;4.43;;;;;;;;;;5093105;28;20043;-80
2022/01/23 10:58:58;;;;;;;7.47;4.85;;;;;;;;;;5110943;28;20023;-78
2022/01/23 11:01:24;;;;;;;6.55;4.97;;;;;;;;;;5110852;28;20023;-80
2022/01/23 11:04:22;;;;;;;12.05;6.05;;;;;;;;;;5093306;28;20429;-81
2022/01/23 11:06:58;;;;;;;7.72;4.50;;;;;;;;;;5076900;28;20039;-79
2022/01/23 11:09:25;;;;;;;9.18;5.05;;;;;;;;;;5110577;28;20107;-80
2022/01/23 11:11:59;;;;;;;8.00;5.20;;;;;;;;;;5094849;28;20023;-78
2022/01/23 11:17:26;;;;;;;12.25;5.45;;;;;;;;;;5114678;28;20070;-80
2022/01/23 11:19:53;;;;;;;10.80;4.63;;;;;;;;;;5114677;28;20144;-83
2022/01/23 11:22:23;;;;;;;6.35;4.65;;;;;;;;;;5114392;28;20103;-77
2022/01/23 11:24:50;;;;;;;12.85;5.13;;;;;;;;;;5114574;28;20169;-80
2022/01/23 11:27:18;;;;;;;7.15;5.07;;;;;;;;;;5114225;28;20059;-78
2022/01/23 11:30:05;;;;;;;11.25;6.47;;;;;;;;;;5113959;28;20024;-82
2022/01/23 11:32:37;;;;;;;8.55;6.55;;;;;;;;;;5114796;28;20036;-79
2022/01/23 11:35:07;;;;;;;8.20;6.30;;;;;;;;;;5114139;28;20098;-79
2022/01/23 11:37:34;;;;;;;9.18;6.65;;;;;;;;;;5095891;28;20023;-75
2022/01/23 11:40:07;;;;;;;9.23;7.05;;;;;;;;;;5114514;28;20051;-76
2022/01/23 11:51:20;;;;;;;12.25;8.65;;;;;;;;;;5113988;28;20121;-77
2022/01/23 11:53:53;;;;;;;12.07;8.63;;;;;;;;;;5114001;28;20370;-77
2022/01/23 11:56:41;;;;;;;11.40;8.80;;;;;;;;;;5113739;28;20491;-76
2022/01/23 11:59:10;;;;;;;11.32;7.95;;;;;;;;;;5113394;28;20118;-77
2022/01/23 12:01:39;;;;;;;10.95;8.40;;;;;;;;;;5113392;28;20070;-77
2022/01/23 12:04:08;;;;;;;10.52;8.40;;;;;;;;;;5113580;28;20045;-77
2022/01/23 12:06:35;;;;;;;12.70;8.75;;;;;;;;;;5113776;28;20062;-78
2022/01/23 12:09:12;;;;;;;10.98;8.95;;;;;;;;;;5113272;28;20024;-75
2022/01/23 12:16:57;;;;;;;10.90;8.88;;;;;;;;;;5071521;28;20075;-76
2022/01/23 12:19:24;;;;;;;13.63;9.38;;;;;;;;;;5112314;28;20072;-76
2022/01/23 12:21:52;;;;;;;16.48;9.43;;;;;;;;;;5111826;28;20028;-76
2022/01/23 12:24:19;;;;;;;13.80;10.93;;;;;;;;;;5112569;28;20033;-78
2022/01/23 12:26:47;;;;;;;15.30;10.15;;;;;;;;;;5112520;28;20039;-76
2022/01/23 12:29:18;;;;;;;14.82;11.00;;;;;;;;;;5112288;28;20113;-75
2022/01/23 12:31:45;;;;;;;14.77;10.57;;;;;;;;;;5113258;28;20027;-75
2022/01/23 12:34:11;;;;;;;14.30;10.57;;;;;;;;;;5094616;28;20055;-75
2022/01/23 12:36:38;;;;;;;14.48;9.73;;;;;;;;;;5113042;28;20023;-78
2022/01/23 12:39:07;;;;;;;14.00;10.63;;;;;;;;;;5112784;28;20028;-78
2022/01/23 12:41:37;;;;;;;14.43;9.85;;;;;;;;;;5094805;28;20027;-78
2022/01/23 12:44:06;;;;;;;13.07;10.13;;;;;;;;;;5112738;28;20067;-77
2022/01/23 12:46:32;;;;;;;14.95;9.32;;;;;;;;;;5113092;28;20032;-78
2022/01/23 12:48:59;;;;;;;14.27;10.85;;;;;;;;;;5112898;28;20030;-78
2022/01/23 12:51:29;;;;;;;15.63;11.45;;;;;;;;;;5112531;28;20022;-77
2022/01/23 12:53:55;;;;;;;17.98;10.50;;;;;;;;;;5094634;28;20107;-77
2022/01/23 12:56:28;;;;;;;15.88;10.98;;;;;;;;;;5112622;28;20102;-77
2022/01/23 12:59:04;;;;;;;15.25;10.57;;;;;;;;;;5112317;28;20050;-77
2022/01/23 13:01:31;;;;;;;12.70;10.80;;;;;;;;;;5112413;28;20027;-78
2022/01/23 13:03:58;;;;;;;15.82;10.77;;;;;;;;;;5112123;28;20102;-78
2022/01/23 13:06:30;;;;;;;16.50;11.10;;;;;;;;;;5112279;28;20028;-78
2022/01/23 13:10:26;;;;;;;16.80;11.18;;;;;;;;;;5112565;28;20077;-78
2022/01/23 13:30:56;;;;;;;15.15;8.68;;;;;;;;;;5096920;28;20522;-80
2022/01/23 13:33:23;;;;;;;10.45;8.05;;;;;;;;;;5110961;28;20376;-80
2022/01/23 13:35:53;;;;;;;15.00;8.98;;;;;;;;;;5112098;28;20097;-80
2022/01/23 13:38:22;;;;;;;11.55;9.27;;;;;;;;;;5111924;28;20471;-80
2022/01/23 13:40:58;;;;;;;12.88;9.70;;;;;;;;;;5112124;28;20019;-80
2022/01/23 13:50:04;;;;;;;15.43;9.10;;;;;;;;;;5096626;28;20055;-81
2022/01/23 13:52:02;;;;;;;12.13;8.88;;;;;;;;;;5111597;28;20047;-82
2022/01/23 14:02:25;;;;;;;14.40;10.25;;;;;;;;;;5111449;28;20039;-82
2022/01/23 14:04:54;;;;;;;12.68;8.60;;;;;;;;;;5111672;28;20020;-81
2022/01/23 14:07:30;;;;;;;13.30;9.38;;;;;;;;;;5093054;28;20080;-82
2022/01/23 14:09:57;;;;;;;12.88;9.35;;;;;;;;;;5111893;28;20368;-82
2022/01/23 14:12:25;;;;;;;12.30;8.75;;;;;;;;;;5092970;28;20034;-83
2022/01/23 14:14:51;;;;;;;11.25;9.48;;;;;;;;;;5093174;28;20100;-82
2022/01/23 14:17:17;;;;;;;10.23;8.02;;;;;;;;;;5111363;28;20479;-82
2022/01/23 14:19:55;;;;;;;13.02;9.25;;;;;;;;;;5111486;28;20395;-80
2022/01/23 14:22:26;;;;;;;14.25;8.60;;;;;;;;;;5111256;28;20383;-77
2022/01/23 14:24:52;;;;;;;9.93;8.43;;;;;;;;;;5093094;28;20449;-80
2022/01/23 14:27:21;;;;;;;10.73;8.82;;;;;;;;;;5110553;28;20501;-79
2022/01/23 14:29:47;;;;;;;10.35;8.40;;;;;;;;;;5092774;28;20054;-81
2022/01/23 14:32:28;;;;;;;12.88;8.60;;;;;;;;;;5111115;28;20025;-79
2022/01/23 14:35:11;;;;;;;12.02;9.05;;;;;;;;;;5111360;28;20427;-79
2022/01/23 14:37:37;;;;;;;16.17;9.50;;;;;;;;;;5111457;28;20081;-79
2022/01/23 14:40:14;;;;;;;12.00;8.88;;;;;;;;;;5110358;28;20069;-79
2022/01/23 14:42:40;;;;;;;12.07;8.90;;;;;;;;;;5108147;28;20454;-79
2022/01/23 14:45:07;;;;;;;13.95;9.32;;;;;;;;;;5095541;28;20372;-79
2022/01/23 14:47:35;;;;;;;9.70;8.07;;;;;;;;;;5116030;27;20077;-79
2022/01/23 14:50:02;;;;;;;11.27;8.10;;;;;;;;;;5120245;27;20087;-80
2022/01/23 14:52:28;;;;;;;10.45;7.88;;;;;;;;;;5097688;28;20491;-79
2022/01/23 14:54:56;;;;;;;10.32;8.48;;;;;;;;;;5111995;27;20031;-79
2022/01/23 14:57:23;;;;;;;10.63;8.65;;;;;;;;;;5114385;27;20110;-79
2022/01/23 14:59:49;;;;;;;10.00;7.88;;;;;;;;;;5113919;28;20115;-80
2022/01/23 15:02:16;;;;;;;10.95;8.82;;;;;;;;;;5119539;27;20518;-80
2022/01/23 15:04:43;;;;;;;9.75;8.35;;;;;;;;;;5125492;27;20048;-81
2022/01/23 15:07:14;;;;;;;9.02;7.40;;;;;;;;;;5127239;27;20473;-81
2022/01/23 15:09:40;;;;;;;10.82;7.35;;;;;;;;;;5117845;27;20166;-81
2022/01/23 15:12:07;;;;;;;12.48;7.72;;;;;;;;;;5130388;27;20073;-81
2022/01/23 15:14:33;;;;;;;10.57;7.63;;;;;;;;;;5122202;27;20463;-80
2022/01/23 15:16:59;;;;;;;11.82;8.00;;;;;;;;;;5123291;27;20028;-81
2022/01/23 15:19:25;;;;;;;8.30;7.20;;;;;;;;;;5129415;27;20124;-80
2022/01/23 15:21:51;;;;;;;10.60;7.97;;;;;;;;;;5097023;27;20106;-80
2022/01/23 15:24:17;;;;;;;9.57;7.72;;;;;;;;;;5122006;27;20562;-79
2022/01/23 15:26:43;;;;;;;9.40;7.32;;;;;;;;;;5122176;27;20034;-82
2022/01/23 15:29:09;;;;;;;8.68;7.38;;;;;;;;;;5113369;28;20111;-81
2022/01/23 15:31:38;;;;;;;9.38;7.78;;;;;;;;;;5130409;27;20416;-80
2022/01/23 15:34:04;;;;;;;8.80;7.53;;;;;;;;;;5119814;27;20022;-80
2022/01/23 15:36:30;;;;;;;9.52;7.65;;;;;;;;;;5124430;27;20074;-80
2022/01/23 15:38:56;;;;;;;9.00;7.45;;;;;;;;;;5120862;27;20058;-80
2022/01/23 15:41:22;;;;;;;8.25;6.93;;;;;;;;;;5130266;27;20026;-80
2022/01/23 15:43:48;;;;;;;11.73;7.88;;;;;;;;;;5118037;27;20367;-80
2022/01/23 15:46:14;;;;;;;9.52;6.93;;;;;;;;;;5125837;27;20090;-80
2022/01/23 15:48:41;;;;;;;11.23;8.13;;;;;;;;;;5125052;27;20079;-81
2022/01/23 15:51:07;;;;;;;8.95;7.50;;;;;;;;;;5118285;27;20023;-80
2022/01/23 15:53:33;;;;;;;9.75;7.68;;;;;;;;;;5130119;27;20026;-80
2022/01/23 15:55:59;;;;;;;10.18;7.50;;;;;;;;;;5118576;27;20118;-81
2022/01/23 15:58:28;;;;;;;10.40;7.35;;;;;;;;;;5123799;27;20043;-81
2022/01/23 16:00:54;;;;;;;9.10;7.28;;;;;;;;;;5113917;27;20111;-81
2022/01/23 16:03:20;;;;;;;9.20;6.95;;;;;;;;;;5129875;27;20495;-80
2022/01/23 16:05:46;;;;;;;8.63;6.45;;;;;;;;;;5098829;27;20023;-80
2022/01/23 16:08:13;;;;;;;9.30;7.53;;;;;;;;;;5125823;27;20035;-79
2022/01/23 16:10:39;;;;;;;8.63;7.25;;;;;;;;;;5124460;27;20027;-80
2022/01/23 16:13:05;;;;;;;10.05;6.80;;;;;;;;;;5118100;27;20026;-81
2022/01/23 16:15:31;;;;;;;9.05;7.32;;;;;;;;;;5126576;27;20099;-81
2022/01/23 16:17:57;;;;;;;10.65;7.82;;;;;;;;;;5128169;27;20024;-81
2022/01/23 16:20:23;;;;;;;10.95;7.57;;;;;;;;;;5121850;27;20030;-80
2022/01/23 16:22:49;;;;;;;8.85;7.18;;;;;;;;;;5119933;27;20073;-80
2022/01/23 16:25:18;;;;;;;8.85;6.80;;;;;;;;;;5114758;27;20085;-79
2022/01/23 16:27:44;;;;;;;8.15;7.13;;;;;;;;;;5095490;28;20032;-83
2022/01/23 16:30:10;;;;;;;9.88;7.00;;;;;;;;;;5119443;27;20087;-79
2022/01/23 16:32:37;;;;;;;8.73;6.72;;;;;;;;;;5122029;27;20023;-79
2022/01/23 16:35:03;;;;;;;8.73;7.22;;;;;;;;;;5127110;27;20030;-82
2022/01/23 16:37:29;;;;;;;8.52;7.20;;;;;;;;;;5116250;27;20547;-80
2022/01/23 16:39:55;;;;;;;8.18;6.60;;;;;;;;;;5127622;27;20134;-80
2022/01/23 16:42:22;;;;;;;8.93;6.75;;;;;;;;;;5121102;27;20031;-79
2022/01/23 16:44:48;;;;;;;8.77;6.95;;;;;;;;;;5120063;27;20047;-81
2022/01/23 16:47:14;;;;;;;9.32;6.75;;;;;;;;;;5128472;27;20623;-77
2022/01/23 16:49:42;;;;;;;9.13;6.88;;;;;;;;;;5115504;27;20494;-80
2022/01/23 16:52:11;;;;;;;8.98;6.88;;;;;;;;;;5125497;27;20027;-79
2022/01/23 16:54:37;;;;;;;9.00;6.78;;;;;;;;;;5123375;27;20030;-78
2022/01/23 16:57:04;;;;;;;8.50;6.20;;;;;;;;;;5117539;27;20024;-77
2022/01/23 16:59:33;;;;;;;9.05;6.65;;;;;;;;;;5113973;27;20092;-76
2022/01/23 17:01:59;;;;;;;8.60;6.25;;;;;;;;;;5127092;27;20024;-81
2022/01/23 17:04:25;;;;;;;7.65;6.00;;;;;;;;;;5120440;27;20019;-78
2022/01/23 17:06:51;;;;;;;7.75;5.80;;;;;;;;;;5106582;27;20126;-83
2022/01/23 17:09:17;;;;;;;8.05;5.90;;;;;;;;;;5115137;27;20031;-78
2022/01/23 17:11:43;;;;;;;11.18;6.07;;;;;;;;;;5128540;27;20073;-77
2022/01/23 17:14:09;;;;;;;8.38;5.03;;;;;;;;;;5111008;27;20051;-77
2022/01/23 17:16:35;;;;;;;6.88;5.75;;;;;;;;;;5093313;28;20479;-78
2022/01/23 17:19:01;;;;;;;9.00;6.53;;;;;;;;;;5126631;27;20019;-76
2022/01/23 17:21:27;;;;;;;8.48;6.25;;;;;;;;;;5114383;27;20023;-76
2022/01/23 17:23:54;;;;;;;7.22;5.95;;;;;;;;;;5121516;27;20511;-74
2022/01/23 17:26:20;;;;;;;7.82;6.53;;;;;;;;;;5121695;27;20036;-77
2022/01/23 17:28:48;;;;;;;10.27;5.53;;;;;;;;;;5102168;27;20034;-77
2022/01/23 17:31:14;;;;;;;7.60;5.70;;;;;;;;;;5121139;27;20486;-77
2022/01/23 17:33:41;;;;;;;6.45;5.05;;;;;;;;;;5120516;27;20042;-78
2022/01/23 17:36:07;;;;;;;7.70;5.35;;;;;;;;;;5112577;27;20032;-77
2022/01/23 17:38:36;;;;;;;8.85;5.32;;;;;;;;;;5121625;27;20053;-77
2022/01/23 17:41:02;;;;;;;7.30;5.22;;;;;;;;;;5098473;28;20118;-77
2022/01/23 17:43:29;;;;;;;8.38;5.15;;;;;;;;;;5128328;27;20122;-78
2022/01/23 17:45:55;;;;;;;7.88;5.45;;;;;;;;;;5093363;28;20027;-76
2022/01/23 17:51:07;;;;;;;5.90;4.60;;;;;;;;;;5110551;27;20027;-77
2022/01/23 17:53:34;;;;;;;7.32;5.18;;;;;;;;;;5094472;28;20023;-76
2022/01/23 17:56:01;;;;;;;23.17;6.25;;;;;;;;;;5111566;28;20413;-77
2022/01/23 17:58:28;;;;;;;39.92;6.85;;;;;;;;;;5111138;28;20107;-77
2022/01/23 18:00:54;;;;;;;27.20;7.03;;;;;;;;;;5111242;28;20035;-77
2022/01/23 18:03:21;;;;;;;24.38;5.75;;;;;;;;;;5111455;28;20080;-76